Terminal Aerodrome Forecast
Issued by NWS Milwaukee/Sullivan, WI

Home | Current Version | Previous Version | Text Only | Print | Product List | Glossary On
Versions: 1 2 3 4 5 6 7 8 9 10 11 12 13 14 15 16 17 18 19 20 21 22 23 24 25 26 27 28 29 30 31 32 33 34 35 36 37 38 39 40 41 42 43 44 45 46 47 48 49 50
000
FTUS43 KMKX 031504 CCA
TAFMKE
TAF COR
KMKE 031504Z 0315/0418 16012KT 3/4SM -SNPL OVC013
      TEMPO 0315/0316 1/2SM PL OVC007
     FM031700 19012G19KT 2SM -SNPL BR BKN008 OVC015
      TEMPO 0317/0318 -FZDZ BR
     FM031800 23012G20KT P6SM OVC008
     FM032200 25012KT P6SM OVC020
     FM040000 27011KT P6SM OVC035
     FM040400 29012KT P6SM SCT035
     FM040700 29012G21KT P6SM SCT150=

USA.gov is the U.S. government's official web portal to all federal, state and local government web resources and services.